sensor_id;sensor_type;location;lat;lon;timestamp;pressure;altitude;pressure_sealevel;temperature;humidity
32759;BME280;19125;52.360;9.974;2023-09-18T00:00:21;82860.81;;;-145.17;61.57
32759;BME280;19125;52.360;9.974;2023-09-18T00:02:47;82787.47;;;-145.17;61.52
32759;BME280;19125;52.360;9.974;2023-09-18T00:05:13;82648.69;;;-145.17;61.73
32759;BME280;19125;52.360;9.974;2023-09-18T00:07:41;82557.47;;;-145.17;61.67
32759;BME280;19125;52.360;9.974;2023-09-18T00:10:09;82291.81;;;-145.17;61.76
32759;BME280;19125;52.360;9.974;2023-09-18T00:12:34;82089.63;;;-145.17;61.75
32759;BME280;19125;52.360;9.974;2023-09-18T00:15:00;81835.88;;;-145.17;61.77
32759;BME280;19125;52.360;9.974;2023-09-18T00:17:26;81546.47;;;-145.17;61.70
32759;BME280;19125;52.360;9.974;2023-09-18T00:19:51;81201.63;;;-145.17;61.88
32759;BME280;19125;52.360;9.974;2023-09-18T00:22:17;81017.31;;;-145.17;62.16
32759;BME280;19125;52.360;9.974;2023-09-18T00:24:44;80567.44;;;-145.17;62.14
32759;BME280;19125;52.360;9.974;2023-09-18T00:27:10;80329.66;;;-145.17;62.02
32759;BME280;19125;52.360;9.974;2023-09-18T00:29:39;80050.28;;;-145.17;62.08
32759;BME280;19125;52.360;9.974;2023-09-18T00:32:05;79598.56;;;-145.17;62.27
32759;BME280;19125;52.360;9.974;2023-09-18T00:34:31;79257.81;;;-145.17;62.29
32759;BME280;19125;52.360;9.974;2023-09-18T00:36:57;78699.22;;;-145.17;62.27
32759;BME280;19125;52.360;9.974;2023-09-18T00:39:25;77742.66;;;-145.17;62.55
32759;BME280;19125;52.360;9.974;2023-09-18T00:41:50;76855.63;;;-145.17;62.66
32759;BME280;19125;52.360;9.974;2023-09-18T00:44:22;76077.66;;;-145.17;62.79
32759;BME280;19125;52.360;9.974;2023-09-18T00:46:48;75284.00;;;-145.17;62.79
32759;BME280;19125;52.360;9.974;2023-09-18T00:49:15;73984.00;;;-145.17;62.78
32759;BME280;19125;52.360;9.974;2023-09-18T00:51:41;72407.56;;;-145.17;63.12
32759;BME280;19125;52.360;9.974;2023-09-18T00:54:08;70750.69;;;-145.17;63.19
32759;BME280;19125;52.360;9.974;2023-09-18T00:56:34;68932.50;;;-145.17;63.46
32759;BME280;19125;52.360;9.974;2023-09-18T00:59:01;67055.88;;;-145.17;63.43
32759;BME280;19125;52.360;9.974;2023-09-18T01:01:28;65649.97;;;-145.17;63.64
32759;BME280;19125;52.360;9.974;2023-09-18T01:03:55;64047.22;;;-145.17;63.61
32759;BME280;19125;52.360;9.974;2023-09-18T01:06:21;62496.41;;;-145.17;63.80
32759;BME280;19125;52.360;9.974;2023-09-18T01:08:48;61486.53;;;-145.17;64.05
32759;BME280;19125;52.360;9.974;2023-09-18T01:11:36;60224.53;;;-145.17;63.80
32759;BME280;19125;52.360;9.974;2023-09-18T01:16:56;57701.75;;;-145.17;64.02
32759;BME280;19125;52.360;9.974;2023-09-18T01:19:43;56693.09;;;-145.17;64.16
32759;BME280;19125;52.360;9.974;2023-09-18T01:22:13;55936.78;;;-145.17;64.08
32759;BME280;19125;52.360;9.974;2023-09-18T01:24:40;54928.56;;;-145.17;64.06
32759;BME280;19125;52.360;9.974;2023-09-18T01:27:12;53920.63;;;-145.17;64.10
32759;BME280;19125;52.360;9.974;2023-09-18T01:29:42;53164.81;;;-145.17;64.08
32759;BME280;19125;52.360;9.974;2023-09-18T01:32:08;52157.31;;;-145.17;64.47
32759;BME280;19125;52.360;9.974;2023-09-18T01:34:41;51401.84;;;-145.17;64.31
32759;BME280;19125;52.360;9.974;2023-09-18T01:37:09;50646.53;;;-145.17;64.33
32759;BME280;19125;52.360;9.974;2023-09-18T01:39:36;50143.06;;;-145.17;64.34
32759;BME280;19125;52.360;9.974;2023-09-18T01:42:05;49136.31;;;-145.17;64.51
32759;BME280;19125;52.360;9.974;2023-09-18T01:44:35;48381.44;;;-145.17;64.55
32759;BME280;19125;52.360;9.974;2023-09-18T01:47:03;47626.69;;;-145.17;64.53
32759;BME280;19125;52.360;9.974;2023-09-18T01:49:37;47626.69;;;-145.17;64.48
32759;BME280;19125;52.360;9.974;2023-09-18T01:52:04;47375.16;;;-145.17;64.51
32759;BME280;19125;52.360;9.974;2023-09-18T01:54:31;46620.59;;;-145.17;64.43
32759;BME280;19125;52.360;9.974;2023-09-18T01:56:56;47123.63;;;-145.17;64.51
32759;BME280;19125;52.360;9.974;2023-09-18T01:59:22;46872.09;;;-145.17;64.45
32759;BME280;19125;52.360;9.974;2023-09-18T02:01:49;46872.09;;;-145.17;64.63
32759;BME280;19125;52.360;9.974;2023-09-18T02:04:14;47123.63;;;-145.17;64.62
32759;BME280;19125;52.360;9.974;2023-09-18T02:06:41;47375.16;;;-145.17;64.53
32759;BME280;19125;52.360;9.974;2023-09-18T02:09:07;47626.69;;;-145.17;64.44
32759;BME280;19125;52.360;9.974;2023-09-18T02:11:43;47626.69;;;-145.17;64.49
32759;BME280;19125;52.360;9.974;2023-09-18T02:14:09;47375.16;;;-145.17;64.29
32759;BME280;19125;52.360;9.974;2023-09-18T02:16:37;46872.09;;;-145.17;64.55
32759;BME280;19125;52.360;9.974;2023-09-18T02:19:03;46369.13;;;-145.17;64.44
32759;BME280;19125;52.360;9.974;2023-09-18T02:21:29;45614.78;;;-145.17;64.66
32759;BME280;19125;52.360;9.974;2023-09-18T02:23:55;45111.94;;;-145.17;64.73
32759;BME280;19125;52.360;9.974;2023-09-18T02:26:22;44357.84;;;-145.17;64.83
32759;BME280;19125;52.360;9.974;2023-09-18T02:28:48;43352.56;;;-145.17;65.02
32759;BME280;19125;52.360;9.974;2023-09-18T02:31:14;42598.78;;;-145.17;64.99
32759;BME280;19125;52.360;9.974;2023-09-18T02:33:42;42096.34;;;-145.17;65.06
32759;BME280;19125;52.360;9.974;2023-09-18T02:36:08;41845.16;;;-145.17;65.09
32759;BME280;19125;52.360;9.974;2023-09-18T02:38:33;41342.81;;;-145.17;64.88
32759;BME280;19125;52.360;9.974;2023-09-18T02:40:59;40840.53;;;-145.17;65.00
32759;BME280;19125;52.360;9.974;2023-09-18T02:43:24;40338.31;;;-145.17;65.09
32759;BME280;19125;52.360;9.974;2023-09-18T02:45:50;39585.13;;;-145.17;65.29
32759;BME280;19125;52.360;9.974;2023-09-18T02:48:17;38581.06;;;-145.17;65.20
32759;BME280;19125;52.360;9.974;2023-09-18T02:50:43;38079.16;;;-145.17;65.45
32759;BME280;19125;52.360;9.974;2023-09-18T02:53:20;38079.16;;;-145.17;65.36
32759;BME280;19125;52.360;9.974;2023-09-18T02:55:50;38079.16;;;-145.17;65.25
32759;BME280;19125;52.360;9.974;2023-09-18T02:58:17;37828.22;;;-145.17;65.33
32759;BME280;19125;52.360;9.974;2023-09-18T03:00:45;37828.22;;;-145.17;65.30
32759;BME280;19125;52.360;9.974;2023-09-18T03:03:10;38079.16;;;-145.17;65.19
32759;BME280;19125;52.360;9.974;2023-09-18T03:05:36;38581.06;;;-145.17;65.36
32759;BME280;19125;52.360;9.974;2023-09-18T03:08:02;38330.09;;;-145.17;65.28
32759;BME280;19125;52.360;9.974;2023-09-18T03:10:27;37828.22;;;-145.17;65.42
32759;BME280;19125;52.360;9.974;2023-09-18T03:12:53;37075.50;;;-145.17;65.35
32759;BME280;19125;52.360;9.974;2023-09-18T03:15:18;36322.91;;;-145.17;65.42
32759;BME280;19125;52.360;9.974;2023-09-18T03:17:44;35821.28;;;-145.17;65.59
32759;BME280;19125;52.360;9.974;2023-09-18T03:20:09;35319.69;;;-145.17;65.63
32759;BME280;19125;52.360;9.974;2023-09-18T03:22:37;34818.19;;;-145.17;65.58
32759;BME280;19125;52.360;9.974;2023-09-18T03:25:02;34066.06;;;-145.17;65.74
32759;BME280;19125;52.360;9.974;2023-09-18T03:27:28;33564.69;;;-145.17;65.71
32759;BME280;19125;52.360;9.974;2023-09-18T03:29:55;32562.19;;;-145.17;65.80
32759;BME280;19125;52.360;9.974;2023-09-18T03:32:20;31559.94;;;-145.17;65.96
32759;BME280;19125;52.360;9.974;2023-09-18T03:34:46;30808.44;;;-145.17;66.02
32759;BME280;19125;52.360;9.974;2023-09-18T03:37:11;30057.06;;;-145.17;66.08
32759;BME280;19125;52.360;9.974;2023-09-18T03:39:37;28805.09;;;-145.17;66.19
32759;BME280;19125;52.360;9.974;2023-09-18T03:42:02;28054.09;;;-145.17;66.19
32759;BME280;19125;52.360;9.974;2023-09-18T03:44:28;27303.25;;;-145.17;66.28
32759;BME280;19125;52.360;9.974;2023-09-18T03:46:54;26052.16;;;-145.17;66.50
32759;BME280;19125;52.360;9.974;2023-09-18T03:49:19;25551.84;;;-145.17;66.34
32759;BME280;19125;52.360;9.974;2023-09-18T03:51:44;25301.69;;;-145.17;66.44
32759;BME280;19125;52.360;9.974;2023-09-18T03:54:10;25051.56;;;-145.17;66.39
32759;BME280;19125;52.360;9.974;2023-09-18T03:56:35;24801.47;;;-145.17;66.49
32759;BME280;19125;52.360;9.974;2023-09-18T03:59:00;25301.69;;;-145.17;66.37
32759;BME280;19125;52.360;9.974;2023-09-18T04:01:27;25551.84;;;-145.17;66.31
32759;BME280;19125;52.360;9.974;2023-09-18T04:03:52;25802.00;;;-145.17;66.09
32759;BME280;19125;52.360;9.974;2023-09-18T04:06:20;25551.84;;;-145.17;66.37
32759;BME280;19125;52.360;9.974;2023-09-18T04:08:45;25551.84;;;-145.17;66.27
32759;BME280;19125;52.360;9.974;2023-09-18T04:11:11;25051.56;;;-145.17;66.39
32759;BME280;19125;52.360;9.974;2023-09-18T04:13:36;25051.56;;;-145.17;66.40
32759;BME280;19125;52.360;9.974;2023-09-18T04:16:03;24551.38;;;-145.17;66.35
32759;BME280;19125;52.360;9.974;2023-09-18T04:18:29;23801.22;;;-145.17;66.51
32759;BME280;19125;52.360;9.974;2023-09-18T04:20:54;23551.19;;;-145.17;66.52
32759;BME280;19125;52.360;9.974;2023-09-18T04:23:24;23301.19;;;-145.17;66.63
32759;BME280;19125;52.360;9.974;2023-09-18T04:25:51;22801.19;;;-145.17;66.62
32759;BME280;19125;52.360;9.974;2023-09-18T04:28:19;22551.25;;;-145.17;66.56
32759;BME280;19125;52.360;9.974;2023-09-18T04:30:45;22051.38;;;-145.17;66.68
32759;BME280;19125;52.360;9.974;2023-09-18T04:33:12;21551.56;;;-145.17;66.75
32759;BME280;19125;52.360;9.974;2023-09-18T04:35:38;21551.56;;;-145.17;66.78
32759;BME280;19125;52.360;9.974;2023-09-18T04:38:05;21301.69;;;-145.17;66.72
32759;BME280;19125;52.360;9.974;2023-09-18T04:40:31;21051.81;;;-145.17;66.73
32759;BME280;19125;52.360;9.974;2023-09-18T04:43:00;21051.81;;;-145.17;66.67
32759;BME280;19125;52.360;9.974;2023-09-18T04:45:26;21051.81;;;-145.17;66.67
32759;BME280;19125;52.360;9.974;2023-09-18T04:47:53;20801.97;;;-145.17;66.69
32759;BME280;19125;52.360;9.974;2023-09-18T04:50:19;20801.97;;;-145.17;66.56
32759;BME280;19125;52.360;9.974;2023-09-18T04:52:44;20801.97;;;-145.17;66.61
32759;BME280;19125;52.360;9.974;2023-09-18T04:55:10;21051.81;;;-145.17;66.65
32759;BME280;19125;52.360;9.974;2023-09-18T04:57:36;21051.81;;;-145.17;66.38
32759;BME280;19125;52.360;9.974;2023-09-18T05:00:02;21551.56;;;-145.17;66.45
32759;BME280;19125;52.360;9.974;2023-09-18T05:02:28;22051.38;;;-145.17;66.37
32759;BME280;19125;52.360;9.974;2023-09-18T05:04:56;23051.19;;;-145.17;66.23
32759;BME280;19125;52.360;9.974;2023-09-18T05:07:21;23551.19;;;-145.17;66.42
32759;BME280;19125;52.360;9.974;2023-09-18T05:09:47;24301.31;;;-145.17;66.24
32759;BME280;19125;52.360;9.974;2023-09-18T05:12:12;24551.38;;;-145.17;66.04
32759;BME280;19125;52.360;9.974;2023-09-18T05:14:41;24551.38;;;-145.17;66.08
32759;BME280;19125;52.360;9.974;2023-09-18T05:17:09;24801.47;;;-145.17;66.09
32759;BME280;19125;52.360;9.974;2023-09-18T05:19:35;24801.47;;;-145.17;66.04
32759;BME280;19125;52.360;9.974;2023-09-18T05:22:00;24801.47;;;-145.17;66.07
32759;BME280;19125;52.360;9.974;2023-09-18T05:24:25;25051.56;;;-145.17;65.82
32759;BME280;19125;52.360;9.974;2023-09-18T05:26:53;25301.69;;;-145.17;66.04
32759;BME280;19125;52.360;9.974;2023-09-18T05:29:19;25802.00;;;-145.17;65.85
32759;BME280;19125;52.360;9.974;2023-09-18T05:31:45;26552.53;;;-145.17;65.85
32759;BME280;19125;52.360;9.974;2023-09-18T05:34:11;27803.78;;;-145.17;65.53
32759;BME280;19125;52.360;9.974;2023-09-18T05:36:36;29055.44;;;-145.17;65.49
32759;BME280;19125;52.360;9.974;2023-09-18T05:39:02;29806.63;;;-145.17;65.35
32759;BME280;19125;52.360;9.974;2023-09-18T05:41:28;31058.91;;;-145.17;65.35
32759;BME280;19125;52.360;9.974;2023-09-18T05:43:56;32061.03;;;-145.17;65.11
32759;BME280;19125;52.360;9.974;2023-09-18T05:46:21;32812.78;;;-145.17;65.21
32759;BME280;19125;52.360;9.974;2023-09-18T05:48:47;33564.69;;;-145.17;65.12
32759;BME280;19125;52.360;9.974;2023-09-18T05:51:12;35319.69;;;-145.17;64.94
32759;BME280;19125;52.360;9.974;2023-09-18T05:53:37;38079.16;;;-145.17;64.38
32759;BME280;19125;52.360;9.974;2023-09-18T05:56:03;42096.34;;;-145.17;64.03
32759;BME280;19125;52.360;9.974;2023-09-18T05:58:32;46872.09;;;-145.17;63.67
32759;BME280;19125;52.360;9.974;2023-09-18T06:01:00;52157.31;;;-145.17;63.39
32759;BME280;19125;52.360;9.974;2023-09-18T06:03:26;57449.56;;;-145.17;63.08
32759;BME280;19125;52.360;9.974;2023-09-18T06:05:52;63001.44;;;-145.17;62.73
32759;BME280;19125;52.360;9.974;2023-09-18T06:08:17;68964.13;;;-145.17;62.51
32759;BME280;19125;52.360;9.974;2023-09-18T06:10:44;73669.47;;;-145.17;62.27
32759;BME280;19125;52.360;9.974;2023-09-18T06:13:10;76851.66;;;-145.17;62.19
32759;BME280;19125;52.360;9.974;2023-09-18T06:15:35;78677.44;;;-145.17;61.93
32759;BME280;19125;52.360;9.974;2023-09-18T06:18:01;80258.31;;;-145.17;61.80
32759;BME280;19125;52.360;9.974;2023-09-18T06:20:26;81284.84;;;-145.17;61.65
32759;BME280;19125;52.360;9.974;2023-09-18T06:22:52;82105.47;;;-145.17;61.61
32759;BME280;19125;52.360;9.974;2023-09-18T06:25:17;82692.28;;;-145.17;61.61
32759;BME280;19125;52.360;9.974;2023-09-18T06:27:43;82956.00;;;-145.17;61.25
32759;BME280;19125;52.360;9.974;2023-09-18T06:30:08;83556.81;;;-145.17;61.21
32759;BME280;19125;52.360;9.974;2023-09-18T06:32:34;84060.56;;;-145.17;61.05
32759;BME280;19125;52.360;9.974;2023-09-18T06:35:02;84366.00;;;-145.17;60.93
32759;BME280;19125;52.360;9.974;2023-09-18T06:37:28;84659.56;;;-145.17;60.97
32759;BME280;19125;52.360;9.974;2023-09-18T06:39:53;84699.25;;;-145.17;61.00
32759;BME280;19125;52.360;9.974;2023-09-18T06:42:20;84441.38;;;-145.17;61.12
32759;BME280;19125;52.360;9.974;2023-09-18T06:44:45;84096.25;;;-145.17;61.17
32759;BME280;19125;52.360;9.974;2023-09-18T06:47:11;83969.34;;;-145.17;61.20
32759;BME280;19125;52.360;9.974;2023-09-18T06:49:37;84207.34;;;-145.17;60.96
32759;BME280;19125;52.360;9.974;2023-09-18T06:52:03;84453.28;;;-145.17;60.86
32759;BME280;19125;52.360;9.974;2023-09-18T06:54:28;84990.84;;;-145.17;60.60
32759;BME280;19125;52.360;9.974;2023-09-18T06:56:53;85421.34;;;-145.17;60.11
32759;BME280;19125;52.360;9.974;2023-09-18T06:59:19;85774.53;;;-145.17;59.81
32759;BME280;19125;52.360;9.974;2023-09-18T07:01:45;85838.03;;;-145.17;59.68
32759;BME280;19125;52.360;9.974;2023-09-18T07:04:10;85955.09;;;-145.17;59.64
32759;BME280;19125;52.360;9.974;2023-09-18T07:06:37;85978.91;;;-145.17;59.64
32759;BME280;19125;52.360;9.974;2023-09-18T07:09:02;86018.59;;;-145.17;59.66
32759;BME280;19125;52.360;9.974;2023-09-18T07:11:29;86018.59;;;-145.17;59.73
32759;BME280;19125;52.360;9.974;2023-09-18T07:13:55;86024.53;;;-145.17;59.50
32759;BME280;19125;52.360;9.974;2023-09-18T07:16:20;85994.78;;;-145.17;59.64
32759;BME280;19125;52.360;9.974;2023-09-18T07:18:45;86012.63;;;-145.17;59.40
32759;BME280;19125;52.360;9.974;2023-09-18T07:21:11;86086.06;;;-145.17;59.52
32759;BME280;19125;52.360;9.974;2023-09-18T07:23:37;86034.47;;;-145.17;59.64
32759;BME280;19125;52.360;9.974;2023-09-18T07:26:03;86020.56;;;-145.17;59.69
32759;BME280;19125;52.360;9.974;2023-09-18T07:28:28;86016.59;;;-145.17;59.81
32759;BME280;19125;52.360;9.974;2023-09-18T07:30:53;86024.53;;;-145.17;59.72
32759;BME280;19125;52.360;9.974;2023-09-18T07:33:19;86024.53;;;-145.17;59.46
32759;BME280;19125;52.360;9.974;2023-09-18T07:35:49;86012.63;;;-145.17;59.12
32759;BME280;19125;52.360;9.974;2023-09-18T07:38:17;86012.63;;;-145.17;58.96
32759;BME280;19125;52.360;9.974;2023-09-18T07:40:44;86032.47;;;-145.17;58.62
32759;BME280;19125;52.360;9.974;2023-09-18T07:43:09;86064.22;;;-145.17;58.32
32759;BME280;19125;52.360;9.974;2023-09-18T07:45:37;86008.66;;;-145.17;58.02
32759;BME280;19125;52.360;9.974;2023-09-18T07:48:03;86044.38;;;-145.17;57.94
32759;BME280;19125;52.360;9.974;2023-09-18T07:50:28;86028.50;;;-145.17;57.74
32759;BME280;19125;52.360;9.974;2023-09-18T07:52:56;85967.00;;;-145.17;57.06
32759;BME280;19125;52.360;9.974;2023-09-18T07:55:21;85921.34;;;-145.17;57.04
32759;BME280;19125;52.360;9.974;2023-09-18T07:57:47;85933.25;;;-145.17;56.88
32759;BME280;19125;52.360;9.974;2023-09-18T08:00:14;85881.69;;;-145.17;56.91
32759;BME280;19125;52.360;9.974;2023-09-18T08:02:40;85909.44;;;-145.17;56.66
32759;BME280;19125;52.360;9.974;2023-09-18T08:05:07;85808.25;;;-145.17;56.17
32759;BME280;19125;52.360;9.974;2023-09-18T08:07:34;85639.59;;;-145.17;55.21
32759;BME280;19125;52.360;9.974;2023-09-18T08:10:01;85512.63;;;-145.17;54.13
32759;BME280;19125;52.360;9.974;2023-09-18T08:12:27;85429.28;;;-145.17;53.15
32759;BME280;19125;52.360;9.974;2023-09-18T08:14:52;85258.69;;;-145.17;52.58
32759;BME280;19125;52.360;9.974;2023-09-18T08:17:18;85222.97;;;-145.17;51.98
32759;BME280;19125;52.360;9.974;2023-09-18T08:19:43;85189.25;;;-145.17;51.70
32759;BME280;19125;52.360;9.974;2023-09-18T08:22:09;85088.06;;;-145.17;51.09
32759;BME280;19125;52.360;9.974;2023-09-18T08:24:37;84947.22;;;-145.17;50.18
32759;BME280;19125;52.360;9.974;2023-09-18T08:27:02;84766.69;;;-145.17;49.48
32759;BME280;19125;52.360;9.974;2023-09-18T08:29:28;84725.03;;;-145.17;48.41
32759;BME280;19125;52.360;9.974;2023-09-18T08:31:54;84758.75;;;-145.17;47.92
32759;BME280;19125;52.360;9.974;2023-09-18T08:34:19;84691.31;;;-145.17;47.46
32759;BME280;19125;52.360;9.974;2023-09-18T08:36:44;84669.50;;;-145.17;47.31
32759;BME280;19125;52.360;9.974;2023-09-18T08:39:10;84734.94;;;-145.17;47.54
32759;BME280;19125;52.360;9.974;2023-09-18T08:41:38;84727.03;;;-145.17;47.40
32759;BME280;19125;52.360;9.974;2023-09-18T08:44:07;84758.75;;;-145.17;47.15
32759;BME280;19125;52.360;9.974;2023-09-18T08:46:34;84689.31;;;-145.17;47.04
32759;BME280;19125;52.360;9.974;2023-09-18T08:49:01;84675.44;;;-145.17;46.86
32759;BME280;19125;52.360;9.974;2023-09-18T08:51:27;84665.53;;;-145.17;47.01
32759;BME280;19125;52.360;9.974;2023-09-18T08:53:54;84619.91;;;-145.17;46.70
32759;BME280;19125;52.360;9.974;2023-09-18T08:56:20;84647.66;;;-145.17;46.10
32759;BME280;19125;52.360;9.974;2023-09-18T08:58:46;84594.13;;;-145.17;46.30
32759;BME280;19125;52.360;9.974;2023-09-18T09:01:12;84623.88;;;-145.17;46.28
32759;BME280;19125;52.360;9.974;2023-09-18T09:03:38;84663.53;;;-145.17;46.62
32759;BME280;19125;52.360;9.974;2023-09-18T09:06:05;84651.63;;;-145.17;46.90
32759;BME280;19125;52.360;9.974;2023-09-18T09:08:42;84627.84;;;-145.17;46.99
32759;BME280;19125;52.360;9.974;2023-09-18T09:11:08;84651.63;;;-145.17;46.74
32759;BME280;19125;52.360;9.974;2023-09-18T09:13:33;84602.03;;;-145.17;46.32
32759;BME280;19125;52.360;9.974;2023-09-18T09:15:59;84619.91;;;-145.17;46.38
32759;BME280;19125;52.360;9.974;2023-09-18T09:18:29;84576.25;;;-145.17;46.39
32759;BME280;19125;52.360;9.974;2023-09-18T09:21:01;84546.50;;;-145.17;45.83
32759;BME280;19125;52.360;9.974;2023-09-18T09:23:29;84552.47;;;-145.17;45.37
32759;BME280;19125;52.360;9.974;2023-09-18T09:26:14;84544.53;;;-145.17;45.43
32759;BME280;19125;52.360;9.974;2023-09-18T09:28:40;84530.63;;;-145.17;45.21
32759;BME280;19125;52.360;9.974;2023-09-18T09:31:08;84538.56;;;-145.17;45.13
32759;BME280;19125;52.360;9.974;2023-09-18T09:33:34;84562.38;;;-145.17;45.42
32759;BME280;19125;52.360;9.974;2023-09-18T09:35:59;84536.59;;;-145.17;45.42
32759;BME280;19125;52.360;9.974;2023-09-18T09:38:33;84546.50;;;-145.17;45.32
32759;BME280;19125;52.360;9.974;2023-09-18T09:41:02;84602.03;;;-145.17;44.86
32759;BME280;19125;52.360;9.974;2023-09-18T09:43:32;84524.69;;;-145.17;44.53
32759;BME280;19125;52.360;9.974;2023-09-18T09:46:01;84516.75;;;-145.17;44.73
32759;BME280;19125;52.360;9.974;2023-09-18T09:48:27;84592.13;;;-145.17;44.86
32759;BME280;19125;52.360;9.974;2023-09-18T09:50:59;84542.53;;;-145.17;44.95
32759;BME280;19125;52.360;9.974;2023-09-18T09:53:47;84540.56;;;-145.17;45.23
32759;BME280;19125;52.360;9.974;2023-09-18T09:56:14;84578.25;;;-145.17;44.82
32759;BME280;19125;52.360;9.974;2023-09-18T09:58:40;84576.25;;;-145.17;44.64
32759;BME280;19125;52.360;9.974;2023-09-18T10:01:11;84540.56;;;-145.17;44.50
32759;BME280;19125;52.360;9.974;2023-09-18T10:03:43;84643.69;;;-145.17;44.91
32759;BME280;19125;52.360;9.974;2023-09-18T10:06:09;84617.91;;;-145.17;45.03
32759;BME280;19125;52.360;9.974;2023-09-18T10:08:38;84633.78;;;-145.17;44.89
32759;BME280;19125;52.360;9.974;2023-09-18T10:11:09;84663.53;;;-145.17;45.08
32759;BME280;19125;52.360;9.974;2023-09-18T10:16:18;84695.28;;;-145.17;45.28
32759;BME280;19125;52.360;9.974;2023-09-18T10:19:27;84598.09;;;-145.17;45.03
32759;BME280;19125;52.360;9.974;2023-09-18T10:22:05;84611.97;;;-145.17;44.61
32759;BME280;19125;52.360;9.974;2023-09-18T10:24:35;84611.97;;;-145.17;43.99
32759;BME280;19125;52.360;9.974;2023-09-18T10:27:06;84576.25;;;-145.17;44.44
32759;BME280;19125;52.360;9.974;2023-09-18T10:29:35;84554.44;;;-145.17;44.53
32759;BME280;19125;52.360;9.974;2023-09-18T10:32:05;84536.59;;;-145.17;44.35
32759;BME280;19125;52.360;9.974;2023-09-18T10:34:32;84554.44;;;-145.17;44.27
32759;BME280;19125;52.360;9.974;2023-09-18T10:36:59;84560.41;;;-145.17;44.13
32759;BME280;19125;52.360;9.974;2023-09-18T10:39:26;84552.47;;;-145.17;44.49
32759;BME280;19125;52.360;9.974;2023-09-18T10:41:55;84518.75;;;-145.17;44.24
32759;BME280;19125;52.360;9.974;2023-09-18T10:44:27;84500.88;;;-145.17;44.01
32759;BME280;19125;52.360;9.974;2023-09-18T10:46:53;84490.97;;;-145.17;43.76
32759;BME280;19125;52.360;9.974;2023-09-18T10:49:19;84477.09;;;-145.17;43.64
32759;BME280;19125;52.360;9.974;2023-09-18T10:51:49;84500.88;;;-145.17;43.72
32759;BME280;19125;52.360;9.974;2023-09-18T10:54:23;84500.88;;;-145.17;43.75
32759;BME280;19125;52.360;9.974;2023-09-18T10:56:48;84494.94;;;-145.17;44.00
32759;BME280;19125;52.360;9.974;2023-09-18T10:59:14;84542.53;;;-145.17;44.13
32759;BME280;19125;52.360;9.974;2023-09-18T11:01:41;84538.56;;;-145.17;44.29
32759;BME280;19125;52.360;9.974;2023-09-18T11:04:07;84477.09;;;-145.17;44.18
32759;BME280;19125;52.360;9.974;2023-09-18T11:09:31;84500.88;;;-145.17;43.65
32759;BME280;19125;52.360;9.974;2023-09-18T11:14:48;84530.63;;;-145.17;43.89
32759;BME280;19125;52.360;9.974;2023-09-18T11:17:38;84576.25;;;-145.17;43.96
32759;BME280;19125;52.360;9.974;2023-09-18T11:20:18;84516.75;;;-145.17;44.07
32759;BME280;19125;52.360;9.974;2023-09-18T11:22:59;84520.72;;;-145.17;44.26
32759;BME280;19125;52.360;9.974;2023-09-18T11:27:55;84524.69;;;-145.17;44.00
32759;BME280;19125;52.360;9.974;2023-09-18T11:30:21;84481.06;;;-145.17;43.93
32759;BME280;19125;52.360;9.974;2023-09-18T11:32:47;84473.13;;;-145.17;43.61
32759;BME280;19125;52.360;9.974;2023-09-18T11:35:13;84445.34;;;-145.17;43.33
32759;BME280;19125;52.360;9.974;2023-09-18T11:37:38;84477.09;;;-145.17;43.25
32759;BME280;19125;52.360;9.974;2023-09-18T11:40:05;84445.34;;;-145.17;43.17
32759;BME280;19125;52.360;9.974;2023-09-18T11:42:33;84389.81;;;-145.17;43.11
32759;BME280;19125;52.360;9.974;2023-09-18T11:44:59;84369.97;;;-145.17;42.70
32759;BME280;19125;52.360;9.974;2023-09-18T11:47:25;84358.06;;;-145.17;42.41
32759;BME280;19125;52.360;9.974;2023-09-18T11:49:55;84354.09;;;-145.17;42.41
32759;BME280;19125;52.360;9.974;2023-09-18T11:52:25;84366.00;;;-145.17;42.54
32759;BME280;19125;52.360;9.974;2023-09-18T11:54:51;84368.00;;;-145.17;42.68
32759;BME280;19125;52.360;9.974;2023-09-18T11:57:18;84405.69;;;-145.17;42.26
32759;BME280;19125;52.360;9.974;2023-09-18T11:59:45;84409.66;;;-145.17;42.47
32759;BME280;19125;52.360;9.974;2023-09-18T12:02:31;84417.56;;;-145.17;42.97
32759;BME280;19125;52.360;9.974;2023-09-18T12:05:16;84399.72;;;-145.17;43.00
32759;BME280;19125;52.360;9.974;2023-09-18T12:07:43;84471.13;;;-145.17;42.94
32759;BME280;19125;52.360;9.974;2023-09-18T12:10:11;84437.41;;;-145.17;43.03
32759;BME280;19125;52.360;9.974;2023-09-18T12:12:37;84467.16;;;-145.17;43.41
32759;BME280;19125;52.360;9.974;2023-09-18T12:15:03;84433.44;;;-145.17;43.31
32759;BME280;19125;52.360;9.974;2023-09-18T12:17:29;84385.84;;;-145.17;43.02
32759;BME280;19125;52.360;9.974;2023-09-18T12:19:55;84373.94;;;-145.17;43.31
32759;BME280;19125;52.360;9.974;2023-09-18T12:22:27;84381.88;;;-145.17;42.91
32759;BME280;19125;52.360;9.974;2023-09-18T12:24:55;84405.69;;;-145.17;43.07
32759;BME280;19125;52.360;9.974;2023-09-18T12:27:35;84356.09;;;-145.17;42.49
32759;BME280;19125;52.360;9.974;2023-09-18T12:30:01;84336.25;;;-145.17;42.59
32759;BME280;19125;52.360;9.974;2023-09-18T12:32:26;84296.59;;;-145.17;42.26
32759;BME280;19125;52.360;9.974;2023-09-18T12:34:52;84314.44;;;-145.17;42.15
32759;BME280;19125;52.360;9.974;2023-09-18T12:37:19;84334.28;;;-145.17;42.25
32759;BME280;19125;52.360;9.974;2023-09-18T12:39:45;84369.97;;;-145.17;42.69
32759;BME280;19125;52.360;9.974;2023-09-18T12:42:11;84362.03;;;-145.17;42.85
32759;BME280;19125;52.360;9.974;2023-09-18T12:44:36;84397.75;;;-145.17;42.89
32759;BME280;19125;52.360;9.974;2023-09-18T12:47:04;84354.09;;;-145.17;43.21
32759;BME280;19125;52.360;9.974;2023-09-18T12:49:30;84401.72;;;-145.17;43.61
32759;BME280;19125;52.360;9.974;2023-09-18T12:51:58;84405.69;;;-145.17;43.35
32759;BME280;19125;52.360;9.974;2023-09-18T12:54:43;84429.47;;;-145.17;43.85